Shonto, Arizona
Current Conditions -  °F | °C
As of 3:53 AM on Sunday 21 Dec 2014 (Local Time) from KPGA Reporting Station
Clear Clear  
Wind Chill: 30°   Ceiling: Unl
Heat Index: 34°   Visibility: 10mi
Dew Point: 28°   Wind: 5mph
Humidity: 79%   Direction: 210°SSW
Pressure: 30.11"   Gusts: NA
Location:  36.59°N, 110.65°W
Report Text: KPGA 211053Z AUTO 21004KT 10SM CLR 01/M02 A3011 RMK AO2 PRESFR SLP196 T00111022 TSNO $
Loading
Personal Weather Stations






























Interactive Weather Map New forecast layout! Learn more

10-Day Weather Forecast

Advertisements
Track Severe Weather on mobile